createdAt,value
2019-03-06T00:00:47.419Z,4.42
2019-03-06T00:03:13.682Z,4.46
2019-03-06T00:05:40.134Z,4.30
2019-03-06T00:08:06.365Z,4.17
2019-03-06T00:10:32.918Z,4.08
2019-03-06T00:13:00.313Z,4.05
2019-03-06T00:15:26.833Z,3.90
2019-03-06T00:17:53.212Z,3.83
2019-03-06T00:20:19.918Z,3.89
2019-03-06T00:22:46.283Z,4.02
2019-03-06T00:25:12.459Z,3.97
2019-03-06T00:27:38.671Z,4.08
2019-03-06T00:30:10.897Z,4.12
2019-03-06T00:32:37.030Z,4.23
2019-03-06T00:35:06.246Z,4.24
2019-03-06T00:37:32.292Z,4.32
2019-03-06T00:40:00.442Z,4.31
2019-03-06T00:42:26.656Z,4.33
2019-03-06T00:44:52.782Z,4.35
2019-03-06T00:47:19.188Z,4.43
2019-03-06T00:49:45.339Z,4.41
2019-03-06T00:52:11.438Z,4.49
2019-03-06T00:54:37.470Z,4.53
2019-03-06T00:57:03.680Z,4.63
2019-03-06T00:59:29.806Z,4.61
2019-03-06T01:01:55.933Z,4.54
2019-03-06T01:04:21.968Z,4.52
2019-03-06T01:06:48.126Z,4.48
2019-03-06T01:09:14.295Z,4.31
2019-03-06T01:11:40.399Z,4.23
2019-03-06T01:14:06.625Z,4.18
2019-03-06T01:16:32.907Z,4.36
2019-03-06T01:18:59.074Z,4.36
2019-03-06T01:21:25.200Z,4.32
2019-03-06T01:23:51.207Z,4.33
2019-03-06T01:26:17.563Z,4.19
2019-03-06T01:28:43.590Z,4.33
2019-03-06T01:31:09.611Z,4.27
2019-03-06T01:33:37.862Z,4.21
2019-03-06T01:36:05.937Z,4.24
2019-03-06T01:38:36.877Z,4.17
2019-03-06T01:41:13.763Z,4.24
2019-03-06T01:46:44.515Z,4.15
2019-03-06T01:49:10.841Z,4.09
2019-03-06T01:51:37.075Z,4.14
2019-03-06T01:54:03.296Z,4.15
2019-03-06T01:56:29.355Z,4.14
2019-03-06T01:58:55.466Z,4.14
2019-03-06T02:01:21.694Z,3.99
2019-03-06T02:03:47.841Z,4.05
2019-03-06T02:06:14.496Z,4.13
2019-03-06T02:08:40.634Z,4.09
2019-03-06T02:11:06.809Z,4.17
2019-03-06T02:13:33.152Z,4.38
2019-03-06T02:15:59.265Z,4.30
2019-03-06T02:18:25.285Z,4.30
2019-03-06T02:20:51.480Z,4.38
2019-03-06T02:23:17.498Z,4.48
2019-03-06T02:25:43.680Z,4.41
2019-03-06T02:28:10.090Z,4.45
2019-03-06T02:30:36.230Z,4.32
2019-03-06T02:33:02.273Z,4.10
2019-03-06T02:35:28.439Z,4.02
2019-03-06T02:37:55.183Z,4.15
2019-03-06T02:40:21.436Z,3.89
2019-03-06T02:42:48.589Z,3.89
2019-03-06T02:45:18.885Z,3.82
2019-03-06T02:47:44.946Z,3.90
2019-03-06T02:50:13.726Z,3.85
2019-03-06T02:52:40.271Z,3.84
2019-03-06T02:55:09.274Z,3.86
2019-03-06T02:57:35.992Z,3.75
2019-03-06T03:00:10.858Z,3.70
2019-03-06T03:02:40.946Z,3.69
2019-03-06T03:05:10.379Z,3.60
2019-03-06T03:07:42.371Z,3.49
2019-03-06T03:10:09.900Z,3.35
2019-03-06T03:12:37.038Z,3.39
2019-03-06T03:15:06.221Z,3.43
2019-03-06T03:17:32.462Z,3.29
2019-03-06T03:19:58.650Z,3.33
2019-03-06T03:22:24.803Z,3.23
2019-03-06T03:24:50.937Z,3.24
2019-03-06T03:27:17.160Z,3.17
2019-03-06T03:29:43.208Z,3.04
2019-03-06T03:32:09.373Z,3.08
2019-03-06T03:34:35.559Z,3.32
2019-03-06T03:37:05.307Z,3.19
2019-03-06T03:39:31.501Z,3.04
2019-03-06T03:41:58.126Z,3.01
2019-03-06T03:44:24.350Z,3.04
2019-03-06T03:46:50.497Z,2.87
2019-03-06T03:49:36.773Z,2.74
2019-03-06T03:52:03.056Z,2.74
2019-03-06T03:54:29.238Z,2.67
2019-03-06T03:56:55.859Z,2.65
2019-03-06T03:59:26.152Z,2.49
2019-03-06T04:01:52.321Z,2.41
2019-03-06T04:04:18.522Z,2.30
2019-03-06T04:06:44.800Z,2.35
2019-03-06T04:09:11.011Z,2.28
2019-03-06T04:11:37.265Z,2.26
2019-03-06T04:14:03.482Z,2.21
2019-03-06T04:16:29.797Z,2.23
2019-03-06T04:18:56.004Z,2.27
2019-03-06T04:21:22.201Z,2.12
2019-03-06T04:23:48.399Z,2.11
2019-03-06T04:26:14.507Z,2.11
2019-03-06T04:28:40.675Z,2.20
2019-03-06T04:31:06.860Z,2.26
2019-03-06T04:33:33.187Z,2.17
2019-03-06T04:35:59.319Z,2.19
2019-03-06T04:38:25.548Z,2.10
2019-03-06T04:40:51.691Z,2.13
2019-03-06T04:43:17.802Z,2.00
2019-03-06T04:45:44.030Z,2.00
2019-03-06T04:48:10.461Z,2.02
2019-03-06T04:50:36.640Z,2.15
2019-03-06T04:53:02.819Z,2.07
2019-03-06T04:55:29.159Z,2.09
2019-03-06T04:57:55.280Z,2.19
2019-03-06T05:00:22.738Z,2.06
2019-03-06T05:02:49.256Z,1.99
2019-03-06T05:05:15.705Z,2.02
2019-03-06T05:07:41.838Z,2.12
2019-03-06T05:10:09.981Z,2.07
2019-03-06T05:12:37.058Z,1.98
2019-03-06T05:15:06.762Z,1.97
2019-03-06T05:17:52.030Z,1.91
2019-03-06T05:20:18.215Z,1.93
2019-03-06T05:22:44.393Z,1.82
2019-03-06T05:25:10.725Z,1.80
2019-03-06T05:27:37.186Z,1.82
2019-03-06T05:30:06.731Z,1.79
2019-03-06T05:35:34.960Z,1.71
2019-03-06T05:38:07.986Z,1.85
2019-03-06T05:40:34.154Z,1.70
2019-03-06T05:43:00.207Z,1.76
2019-03-06T05:45:26.338Z,1.69
2019-03-06T05:47:52.707Z,1.79
2019-03-06T05:50:20.266Z,1.71
2019-03-06T05:52:46.659Z,1.65
2019-03-06T05:55:12.871Z,1.72
2019-03-06T05:57:39.041Z,1.80
2019-03-06T06:00:13.986Z,1.90
2019-03-06T06:02:40.314Z,2.11
2019-03-06T06:05:11.852Z,2.03
2019-03-06T06:07:37.999Z,2.20
2019-03-06T06:10:08.723Z,2.17
2019-03-06T06:12:34.831Z,2.15
2019-03-06T06:15:15.821Z,2.23
2019-03-06T06:17:42.094Z,2.37
2019-03-06T06:20:13.170Z,2.36
2019-03-06T06:22:43.965Z,2.27
2019-03-06T06:25:10.880Z,2.15
2019-03-06T06:27:36.969Z,2.07
2019-03-06T06:30:06.954Z,2.13
2019-03-06T06:32:33.189Z,2.11
2019-03-06T06:34:59.718Z,2.26
2019-03-06T06:37:25.765Z,2.16
2019-03-06T06:39:52.114Z,2.17
2019-03-06T06:42:18.231Z,2.25
2019-03-06T06:44:50.291Z,2.27
2019-03-06T06:47:16.474Z,2.30
2019-03-06T06:49:42.588Z,2.28
2019-03-06T06:52:15.377Z,2.45
2019-03-06T06:54:54.370Z,2.42
2019-03-06T06:57:45.457Z,2.51
2019-03-06T07:00:26.624Z,2.52
2019-03-06T07:03:22.350Z,2.68
2019-03-06T07:05:56.636Z,2.74
2019-03-06T07:08:24.691Z,2.72
2019-03-06T07:10:52.745Z,2.70
2019-03-06T07:13:37.634Z,2.74
2019-03-06T07:16:14.630Z,2.96
2019-03-06T07:18:45.769Z,3.02
2019-03-06T07:21:16.583Z,3.02
2019-03-06T07:23:47.467Z,3.09
2019-03-06T07:26:15.762Z,3.11
2019-03-06T07:28:52.600Z,3.18
2019-03-06T07:31:23.304Z,3.29
2019-03-06T07:34:01.409Z,3.43
2019-03-06T07:36:44.362Z,3.58
2019-03-06T07:39:17.419Z,3.72
2019-03-06T07:42:04.514Z,3.79
2019-03-06T07:44:35.985Z,3.76
2019-03-06T07:47:08.074Z,3.74
2019-03-06T07:49:45.191Z,3.80
2019-03-06T07:52:13.953Z,3.88
2019-03-06T07:54:58.877Z,3.92
2019-03-06T07:57:27.224Z,3.97
2019-03-06T07:59:53.346Z,4.01
2019-03-06T08:02:38.015Z,4.06
2019-03-06T08:05:07.454Z,4.18
2019-03-06T08:07:33.790Z,4.34
2019-03-06T08:10:15.492Z,4.42
2019-03-06T08:12:43.477Z,4.44
2019-03-06T08:15:30.266Z,4.49
2019-03-06T08:17:58.410Z,4.47
2019-03-06T08:20:29.451Z,4.61
2019-03-06T08:23:02.762Z,4.75
2019-03-06T08:25:44.232Z,4.74
2019-03-06T08:28:11.378Z,4.77
2019-03-06T08:30:39.456Z,4.97
2019-03-06T08:33:05.607Z,5.09
2019-03-06T08:35:31.688Z,5.22
2019-03-06T08:37:57.821Z,5.21
2019-03-06T08:40:24.016Z,5.22
2019-03-06T08:42:50.106Z,5.26
2019-03-06T08:45:18.163Z,5.35
2019-03-06T08:47:46.232Z,5.37
2019-03-06T08:50:14.775Z,5.40
2019-03-06T08:52:51.884Z,5.41
2019-03-06T08:55:22.826Z,5.47
2019-03-06T08:58:06.605Z,5.55
2019-03-06T09:00:41.008Z,5.65
2019-03-06T09:03:21.652Z,5.77
2019-03-06T09:05:49.820Z,5.82
2019-03-06T09:08:30.572Z,5.96
2019-03-06T09:11:02.844Z,6.15
2019-03-06T09:13:28.496Z,6.30
2019-03-06T09:16:05.590Z,6.51
2019-03-06T09:18:50.419Z,6.59
2019-03-06T09:21:21.179Z,6.57
2019-03-06T09:23:52.105Z,6.59
2019-03-06T09:26:35.139Z,6.61
2019-03-06T09:29:03.506Z,6.69
2019-03-06T09:31:40.198Z,6.66
2019-03-06T09:34:08.313Z,6.76
2019-03-06T09:36:40.147Z,6.69
2019-03-06T09:39:20.894Z,6.79
2019-03-06T09:41:49.042Z,6.98
2019-03-06T09:44:16.958Z,6.99
2019-03-06T09:46:47.806Z,7.01
2019-03-06T09:49:25.403Z,6.89
2019-03-06T09:52:08.575Z,6.97
2019-03-06T09:54:48.729Z,7.15
2019-03-06T09:57:33.127Z,7.20
2019-03-06T10:00:03.714Z,7.22
2019-03-06T10:02:37.688Z,7.25
2019-03-06T10:05:07.192Z,7.33
2019-03-06T10:07:35.155Z,7.42
2019-03-06T10:10:03.605Z,7.40
2019-03-06T10:12:34.694Z,7.49
2019-03-06T10:15:02.614Z,7.63
2019-03-06T10:17:30.538Z,7.68
2019-03-06T10:19:58.597Z,7.74
2019-03-06T10:22:24.718Z,7.79
2019-03-06T10:24:50.837Z,7.86
2019-03-06T10:27:16.938Z,7.93
2019-03-06T10:29:43.082Z,7.94
2019-03-06T10:32:09.218Z,7.98
2019-03-06T10:34:35.432Z,8.09
2019-03-06T10:37:01.929Z,8.17
2019-03-06T10:39:28.338Z,8.19
2019-03-06T10:41:54.454Z,8.21
2019-03-06T10:44:28.808Z,8.23
2019-03-06T10:46:48.891Z,8.41
2019-03-06T10:49:15.071Z,8.33
2019-03-06T10:51:42.270Z,8.35
2019-03-06T10:54:08.490Z,8.39
2019-03-06T10:56:34.777Z,8.26
2019-03-06T10:59:11.058Z,8.33
2019-03-06T11:01:37.481Z,8.30
2019-03-06T11:04:12.449Z,8.36
2019-03-06T11:06:39.104Z,8.34
2019-03-06T11:09:09.076Z,8.41
2019-03-06T11:11:35.235Z,8.35
2019-03-06T11:14:06.242Z,8.45
2019-03-06T11:16:29.910Z,8.49
2019-03-06T11:18:57.034Z,8.52
2019-03-06T11:21:23.603Z,8.43
2019-03-06T11:23:49.866Z,8.45
2019-03-06T11:26:16.058Z,8.44
2019-03-06T11:29:02.236Z,8.51
2019-03-06T11:31:28.802Z,8.42
2019-03-06T11:33:55.284Z,8.30
2019-03-06T11:36:21.936Z,8.33
2019-03-06T11:38:48.155Z,8.33
2019-03-06T11:41:14.419Z,8.23
2019-03-06T11:43:40.609Z,8.29
2019-03-06T11:46:07.770Z,8.16
2019-03-06T11:48:34.334Z,8.21
2019-03-06T11:51:00.471Z,8.19
2019-03-06T11:53:26.595Z,8.18
2019-03-06T11:55:52.997Z,8.20
2019-03-06T11:58:19.359Z,8.20
2019-03-06T12:00:46.429Z,8.23
2019-03-06T12:03:18.001Z,8.19
2019-03-06T12:05:45.039Z,8.17
2019-03-06T12:08:16.412Z,8.12
2019-03-06T12:10:43.182Z,8.13
2019-03-06T12:13:11.533Z,8.13
2019-03-06T12:15:39.006Z,8.18
2019-03-06T12:18:05.702Z,8.13
2019-03-06T12:20:32.340Z,8.15
2019-03-06T12:22:58.945Z,8.15
2019-03-06T12:25:25.252Z,8.07
2019-03-06T12:27:55.840Z,8.16
2019-03-06T12:30:22.350Z,8.30
2019-03-06T12:32:48.558Z,8.14
2019-03-06T12:35:15.895Z,8.14
2019-03-06T12:37:46.954Z,8.20
2019-03-06T12:40:18.857Z,8.21
2019-03-06T12:42:45.045Z,8.19
2019-03-06T12:45:15.015Z,8.22
2019-03-06T12:47:43.006Z,8.34
2019-03-06T12:50:12.979Z,8.35
2019-03-06T12:52:39.163Z,8.44
2019-03-06T12:55:07.818Z,8.42
2019-03-06T12:57:33.942Z,8.55
2019-03-06T13:00:00.360Z,8.51
2019-03-06T13:02:26.398Z,8.58
2019-03-06T13:04:53.414Z,8.70
2019-03-06T13:07:19.824Z,8.74
2019-03-06T13:09:46.299Z,9.00
2019-03-06T13:12:12.474Z,8.96
2019-03-06T13:14:38.610Z,9.02
2019-03-06T13:17:04.753Z,9.05
2019-03-06T13:19:30.903Z,9.20
2019-03-06T13:21:57.007Z,9.27
2019-03-06T13:24:23.062Z,9.40
2019-03-06T13:26:49.261Z,9.47
2019-03-06T13:29:15.624Z,9.48
2019-03-06T13:31:41.742Z,9.54
2019-03-06T13:34:12.567Z,9.53
2019-03-06T13:36:38.715Z,9.56
2019-03-06T13:39:06.690Z,9.60
2019-03-06T13:41:33.040Z,9.59
2019-03-06T13:43:59.171Z,9.53
2019-03-06T13:46:25.583Z,9.71
2019-03-06T13:48:51.727Z,9.72
2019-03-06T13:51:17.878Z,9.69
2019-03-06T13:53:44.054Z,9.77
2019-03-06T13:56:10.229Z,9.83
2019-03-06T13:58:36.368Z,9.86
2019-03-06T14:01:05.709Z,9.80
2019-03-06T14:03:32.613Z,9.81
2019-03-06T14:05:59.478Z,9.79
2019-03-06T14:08:25.696Z,9.78
2019-03-06T14:10:51.809Z,9.76
2019-03-06T14:13:17.971Z,9.98
2019-03-06T14:15:53.435Z,9.90
2019-03-06T14:18:12.268Z,9.85
2019-03-06T14:20:38.450Z,9.91
2019-03-06T14:23:04.923Z,10.03
2019-03-06T14:25:32.364Z,10.07
2019-03-06T14:27:58.788Z,10.06
2019-03-06T14:30:27.387Z,10.04
2019-03-06T14:32:53.747Z,10.05
2019-03-06T14:35:24.042Z,9.99
2019-03-06T14:37:50.285Z,9.99
2019-03-06T14:40:33.077Z,10.01
2019-03-06T14:43:00.198Z,9.97
2019-03-06T14:45:26.404Z,10.06
2019-03-06T14:47:52.624Z,10.03
2019-03-06T14:50:19.023Z,10.00
2019-03-06T14:52:45.247Z,10.04
2019-03-06T14:55:12.268Z,10.06
2019-03-06T14:57:38.665Z,10.22
2019-03-06T15:00:08.972Z,10.25
2019-03-06T15:02:35.245Z,10.07
2019-03-06T15:05:01.408Z,9.99
2019-03-06T15:07:27.554Z,9.94
2019-03-06T15:09:53.846Z,9.89
2019-03-06T15:12:20.022Z,9.86
2019-03-06T15:14:46.374Z,9.82
2019-03-06T15:17:12.493Z,9.80
2019-03-06T15:19:39.297Z,9.85
2019-03-06T15:22:05.564Z,9.83
2019-03-06T15:24:40.717Z,9.79
2019-03-06T15:26:59.911Z,9.84
2019-03-06T15:29:26.118Z,9.81
2019-03-06T15:31:52.451Z,9.91
2019-03-06T15:34:18.712Z,9.84
2019-03-06T15:36:44.916Z,9.79
2019-03-06T15:39:26.067Z,9.89
2019-03-06T15:42:00.133Z,9.86
2019-03-06T15:44:21.155Z,9.80
2019-03-06T15:46:49.518Z,9.78
2019-03-06T15:49:15.819Z,9.76
2019-03-06T15:51:41.941Z,9.68
2019-03-06T15:54:08.170Z,9.75
2019-03-06T15:56:34.601Z,9.74
2019-03-06T15:59:00.809Z,9.72
2019-03-06T16:01:26.913Z,9.79
2019-03-06T16:03:53.253Z,9.79
2019-03-06T16:06:20.579Z,9.82
2019-03-06T16:08:47.134Z,9.74
2019-03-06T16:11:13.282Z,9.68
2019-03-06T16:13:39.491Z,9.65
2019-03-06T16:16:06.311Z,9.70
2019-03-06T16:18:32.845Z,9.68
2019-03-06T16:20:58.965Z,9.68
2019-03-06T16:23:25.343Z,9.69
2019-03-06T16:25:51.534Z,9.69
2019-03-06T16:28:17.627Z,9.66
2019-03-06T16:30:43.836Z,9.71
2019-03-06T16:33:09.977Z,9.71
2019-03-06T16:35:36.409Z,9.69
2019-03-06T16:38:03.067Z,9.69
2019-03-06T16:40:30.577Z,9.68
2019-03-06T16:42:57.033Z,9.67
2019-03-06T16:45:24.790Z,9.72
2019-03-06T16:47:51.494Z,9.69
2019-03-06T16:50:18.871Z,9.68
2019-03-06T16:52:45.415Z,9.69
2019-03-06T16:55:14.683Z,9.66
2019-03-06T16:57:40.840Z,9.63
2019-03-06T17:00:22.401Z,9.65
2019-03-06T17:02:48.886Z,9.61
2019-03-06T17:05:17.804Z,9.64
2019-03-06T17:07:44.093Z,9.60
2019-03-06T17:10:10.827Z,9.63
2019-03-06T17:12:37.131Z,9.64
2019-03-06T17:15:06.994Z,9.62
2019-03-06T17:17:33.376Z,9.63
2019-03-06T17:19:59.710Z,9.62
2019-03-06T17:22:30.806Z,9.64
2019-03-06T17:24:57.019Z,9.70
2019-03-06T17:27:23.880Z,9.65
2019-03-06T17:29:50.125Z,9.72
2019-03-06T17:32:17.717Z,9.69
2019-03-06T17:34:43.802Z,9.74
2019-03-06T17:37:10.118Z,9.77
2019-03-06T17:39:36.275Z,9.94
2019-03-06T17:42:02.974Z,9.89
2019-03-06T17:44:29.436Z,9.92
2019-03-06T17:46:55.560Z,9.92
2019-03-06T17:49:22.132Z,9.90
2019-03-06T17:51:48.253Z,9.93
2019-03-06T17:54:14.820Z,9.97
2019-03-06T17:56:40.952Z,10.03
2019-03-06T17:59:07.197Z,10.03
2019-03-06T18:01:33.645Z,10.07
2019-03-06T18:04:01.808Z,10.07
2019-03-06T18:06:27.989Z,10.00
2019-03-06T18:08:54.311Z,10.05
2019-03-06T18:11:20.508Z,9.98
2019-03-06T18:13:54.690Z,9.98
2019-03-06T18:16:20.949Z,9.94
2019-03-06T18:18:47.172Z,9.96
2019-03-06T18:21:13.531Z,9.90
2019-03-06T18:23:39.651Z,9.93
2019-03-06T18:26:06.184Z,9.98
2019-03-06T18:28:32.578Z,10.01
2019-03-06T18:30:59.308Z,9.93
2019-03-06T18:33:25.560Z,9.89
2019-03-06T18:35:51.715Z,9.91
2019-03-06T18:38:17.917Z,10.04
2019-03-06T18:40:45.169Z,10.05
2019-03-06T18:43:11.396Z,10.04
2019-03-06T18:45:37.496Z,10.03
2019-03-06T18:48:04.008Z,10.11
2019-03-06T18:50:30.090Z,10.08
2019-03-06T18:52:56.235Z,10.04
2019-03-06T18:55:22.389Z,10.06
2019-03-06T18:57:49.898Z,10.09
2019-03-06T19:00:23.749Z,10.06
2019-03-06T19:02:51.947Z,10.07
2019-03-06T19:05:18.998Z,10.07
2019-03-06T19:07:45.355Z,10.14
2019-03-06T19:10:16.833Z,10.16
2019-03-06T19:12:43.142Z,10.11
2019-03-06T19:15:12.732Z,10.14
2019-03-06T19:17:38.985Z,10.11
2019-03-06T19:20:06.622Z,10.27
2019-03-06T19:22:32.824Z,10.31
2019-03-06T19:25:00.305Z,10.40
2019-03-06T19:27:26.449Z,10.35
2019-03-06T19:29:52.718Z,10.38
2019-03-06T19:32:19.391Z,10.42
2019-03-06T19:34:45.535Z,10.25
2019-03-06T19:37:13.794Z,10.16
2019-03-06T19:39:40.311Z,10.23
2019-03-06T19:42:06.720Z,10.27
2019-03-06T19:44:33.127Z,10.21
2019-03-06T19:46:59.331Z,10.23
2019-03-06T19:49:25.467Z,10.19
2019-03-06T19:52:11.727Z,10.24
2019-03-06T19:54:37.916Z,10.25
2019-03-06T19:57:04.451Z,10.24
2019-03-06T19:59:33.949Z,10.39
2019-03-06T20:02:00.153Z,10.39
2019-03-06T20:04:26.418Z,10.40
2019-03-06T20:06:53.214Z,10.24
2019-03-06T20:09:23.901Z,10.26
2019-03-06T20:11:50.034Z,10.20
2019-03-06T20:14:16.412Z,10.10
2019-03-06T20:16:42.707Z,9.99
2019-03-06T20:19:09.945Z,9.93
2019-03-06T20:21:36.202Z,9.83
2019-03-06T20:24:02.397Z,9.71
2019-03-06T20:26:28.618Z,9.64
2019-03-06T20:28:54.805Z,9.64
2019-03-06T20:31:21.002Z,9.47
2019-03-06T20:33:47.206Z,9.50
2019-03-06T20:36:13.388Z,9.46
2019-03-06T20:38:39.586Z,9.45
2019-03-06T20:41:05.863Z,9.38
2019-03-06T20:43:32.044Z,9.41
2019-03-06T20:45:58.431Z,9.32
2019-03-06T20:48:24.602Z,9.37
2019-03-06T20:51:10.688Z,9.26
2019-03-06T20:53:36.835Z,9.26
2019-03-06T20:56:02.941Z,9.19
2019-03-06T20:58:29.166Z,9.21
2019-03-06T21:00:55.295Z,9.25
2019-03-06T21:03:21.804Z,9.18
2019-03-06T21:05:49.198Z,9.17
2019-03-06T21:08:15.921Z,9.09
2019-03-06T21:10:42.059Z,9.09
2019-03-06T21:13:08.207Z,9.15
2019-03-06T21:15:34.331Z,9.03
2019-03-06T21:18:02.115Z,9.10
2019-03-06T21:20:28.244Z,9.07
2019-03-06T21:22:54.379Z,9.03
2019-03-06T21:25:21.050Z,9.08
2019-03-06T21:27:47.717Z,9.05
2019-03-06T21:30:20.683Z,9.08
2019-03-06T21:32:46.860Z,9.11
2019-03-06T21:35:13.263Z,9.03
2019-03-06T21:37:39.824Z,9.04
2019-03-06T21:40:11.267Z,8.96
2019-03-06T21:42:37.439Z,8.96
2019-03-06T21:45:07.269Z,9.00
2019-03-06T21:47:33.359Z,8.95
2019-03-06T21:50:01.301Z,8.91
2019-03-06T21:52:27.672Z,8.94
2019-03-06T21:54:53.756Z,8.92
2019-03-06T21:57:19.993Z,8.88
2019-03-06T21:59:46.102Z,8.83
2019-03-06T22:02:12.492Z,8.82
2019-03-06T22:04:38.838Z,8.85
2019-03-06T22:07:04.982Z,8.80
2019-03-06T22:09:31.164Z,8.75
2019-03-06T22:11:57.294Z,8.73
2019-03-06T22:14:23.421Z,8.75
2019-03-06T22:16:50.325Z,8.65
2019-03-06T22:19:16.493Z,8.72
2019-03-06T22:21:42.620Z,8.68
2019-03-06T22:24:08.870Z,8.75
2019-03-06T22:26:35.021Z,8.74
2019-03-06T22:29:01.247Z,8.72
2019-03-06T22:31:27.374Z,8.77
2019-03-06T22:33:53.682Z,8.79
2019-03-06T22:36:20.013Z,8.80
2019-03-06T22:38:46.276Z,8.75
2019-03-06T22:41:12.632Z,8.63
2019-03-06T22:43:40.942Z,8.66
2019-03-06T22:46:07.094Z,8.70
2019-03-06T22:48:33.461Z,8.63
2019-03-06T22:50:59.640Z,8.75
2019-03-06T22:53:26.206Z,8.75
2019-03-06T22:55:52.420Z,8.67
2019-03-06T22:58:18.537Z,8.73
2019-03-06T23:00:55.407Z,8.74
2019-03-06T23:03:21.964Z,8.77
2019-03-06T23:05:48.123Z,8.67
2019-03-06T23:08:14.940Z,8.66
2019-03-06T23:10:41.158Z,8.80
2019-03-06T23:13:07.183Z,8.82
2019-03-06T23:15:33.322Z,8.76
2019-03-06T23:17:59.773Z,8.65
2019-03-06T23:20:26.010Z,8.65
2019-03-06T23:22:52.299Z,8.75
2019-03-06T23:25:18.489Z,8.83
2019-03-06T23:27:44.800Z,8.91
2019-03-06T23:30:12.492Z,8.81
2019-03-06T23:32:38.617Z,8.85
2019-03-06T23:35:05.644Z,8.81
2019-03-06T23:37:31.868Z,8.85
2019-03-06T23:39:57.985Z,8.85
2019-03-06T23:42:24.152Z,8.91
2019-03-06T23:44:50.263Z,8.82
2019-03-06T23:47:16.699Z,8.86
2019-03-06T23:49:46.078Z,8.93
2019-03-06T23:52:14.558Z,9.04
2019-03-06T23:54:40.707Z,8.97
2019-03-06T23:57:06.881Z,8.97
2019-03-06T23:59:34.264Z,8.96
